sensor_id;sensor_type;location;lat;lon;timestamp;temperature;humidity
22167;DHT22;11249;52.468;13.776;2023-04-15T00:01:09;8.40;99.90
22167;DHT22;11249;52.468;13.776;2023-04-15T00:03:35;8.40;99.90
22167;DHT22;11249;52.468;13.776;2023-04-15T00:06:03;8.40;99.90
22167;DHT22;11249;52.468;13.776;2023-04-15T00:08:30;8.40;99.90
22167;DHT22;11249;52.468;13.776;2023-04-15T00:10:57;8.40;99.90
22167;DHT22;11249;52.468;13.776;2023-04-15T00:13:28;8.40;99.90
22167;DHT22;11249;52.468;13.776;2023-04-15T00:15:55;8.40;99.90
22167;DHT22;11249;52.468;13.776;2023-04-15T00:18:23;8.40;99.90
22167;DHT22;11249;52.468;13.776;2023-04-15T00:20:49;8.40;99.90
22167;DHT22;11249;52.468;13.776;2023-04-15T00:23:16;8.30;99.90
22167;DHT22;11249;52.468;13.776;2023-04-15T00:25:43;8.40;99.90
22167;DHT22;11249;52.468;13.776;2023-04-15T00:28:10;8.40;99.90
22167;DHT22;11249;52.468;13.776;2023-04-15T00:30:37;8.40;99.90
22167;DHT22;11249;52.468;13.776;2023-04-15T00:33:04;8.30;99.90
22167;DHT22;11249;52.468;13.776;2023-04-15T00:35:31;8.40;99.90
22167;DHT22;11249;52.468;13.776;2023-04-15T00:37:58;8.40;99.90
22167;DHT22;11249;52.468;13.776;2023-04-15T00:40:25;8.40;99.90
22167;DHT22;11249;52.468;13.776;2023-04-15T00:42:53;8.40;99.90
22167;DHT22;11249;52.468;13.776;2023-04-15T00:45:20;8.40;99.90
22167;DHT22;11249;52.468;13.776;2023-04-15T00:47:47;8.40;99.90
22167;DHT22;11249;52.468;13.776;2023-04-15T00:50:14;8.40;99.90
22167;DHT22;11249;52.468;13.776;2023-04-15T00:52:40;8.40;99.90
22167;DHT22;11249;52.468;13.776;2023-04-15T00:55:09;8.40;99.90
22167;DHT22;11249;52.468;13.776;2023-04-15T00:57:38;8.40;99.90
22167;DHT22;11249;52.468;13.776;2023-04-15T01:00:05;8.40;99.90
22167;DHT22;11249;52.468;13.776;2023-04-15T01:02:37;8.40;99.90
22167;DHT22;11249;52.468;13.776;2023-04-15T01:05:05;8.40;99.90
22167;DHT22;11249;52.468;13.776;2023-04-15T01:07:31;8.30;99.90
22167;DHT22;11249;52.468;13.776;2023-04-15T01:09:58;8.30;99.90
22167;DHT22;11249;52.468;13.776;2023-04-15T01:12:25;8.40;99.90
22167;DHT22;11249;52.468;13.776;2023-04-15T01:14:54;8.30;99.90
22167;DHT22;11249;52.468;13.776;2023-04-15T01:17:21;8.40;99.90
22167;DHT22;11249;52.468;13.776;2023-04-15T01:19:47;8.30;99.90
22167;DHT22;11249;52.468;13.776;2023-04-15T01:22:15;8.30;99.90
22167;DHT22;11249;52.468;13.776;2023-04-15T01:24:46;8.30;99.90
22167;DHT22;11249;52.468;13.776;2023-04-15T01:27:16;8.40;99.90
22167;DHT22;11249;52.468;13.776;2023-04-15T01:29:43;8.30;99.90
22167;DHT22;11249;52.468;13.776;2023-04-15T01:32:09;8.30;99.90
22167;DHT22;11249;52.468;13.776;2023-04-15T01:34:36;8.30;99.90
22167;DHT22;11249;52.468;13.776;2023-04-15T01:37:03;8.30;99.90
22167;DHT22;11249;52.468;13.776;2023-04-15T01:39:29;8.40;99.90
22167;DHT22;11249;52.468;13.776;2023-04-15T01:41:56;8.30;99.90
22167;DHT22;11249;52.468;13.776;2023-04-15T01:44:23;8.40;99.90
22167;DHT22;11249;52.468;13.776;2023-04-15T01:46:50;8.30;99.90
22167;DHT22;11249;52.468;13.776;2023-04-15T01:49:17;8.30;99.90
22167;DHT22;11249;52.468;13.776;2023-04-15T01:51:44;8.30;99.90
22167;DHT22;11249;52.468;13.776;2023-04-15T01:54:11;8.30;99.90
22167;DHT22;11249;52.468;13.776;2023-04-15T01:56:37;8.30;99.90
22167;DHT22;11249;52.468;13.776;2023-04-15T01:59:04;8.30;99.90
22167;DHT22;11249;52.468;13.776;2023-04-15T02:01:31;8.30;99.90
22167;DHT22;11249;52.468;13.776;2023-04-15T02:03:58;8.30;99.90
22167;DHT22;11249;52.468;13.776;2023-04-15T02:06:25;8.30;99.90
22167;DHT22;11249;52.468;13.776;2023-04-15T02:08:53;8.30;99.90
22167;DHT22;11249;52.468;13.776;2023-04-15T02:11:20;8.30;99.90
22167;DHT22;11249;52.468;13.776;2023-04-15T02:13:48;8.30;99.90
22167;DHT22;11249;52.468;13.776;2023-04-15T02:16:16;8.30;99.90
22167;DHT22;11249;52.468;13.776;2023-04-15T02:18:46;8.30;99.90
22167;DHT22;11249;52.468;13.776;2023-04-15T02:21:13;8.30;99.90
22167;DHT22;11249;52.468;13.776;2023-04-15T02:23:40;8.30;99.90
22167;DHT22;11249;52.468;13.776;2023-04-15T02:26:07;8.40;99.90
22167;DHT22;11249;52.468;13.776;2023-04-15T02:28:34;8.40;99.90
22167;DHT22;11249;52.468;13.776;2023-04-15T02:31:04;8.40;99.90
22167;DHT22;11249;52.468;13.776;2023-04-15T02:33:32;8.40;99.90
22167;DHT22;11249;52.468;13.776;2023-04-15T02:35:59;8.40;99.90
22167;DHT22;11249;52.468;13.776;2023-04-15T02:38:25;8.40;99.90
22167;DHT22;11249;52.468;13.776;2023-04-15T02:40:52;8.40;99.90
22167;DHT22;11249;52.468;13.776;2023-04-15T02:43:19;8.50;99.90
22167;DHT22;11249;52.468;13.776;2023-04-15T02:45:47;8.40;99.90
22167;DHT22;11249;52.468;13.776;2023-04-15T02:48:14;8.40;99.90
22167;DHT22;11249;52.468;13.776;2023-04-15T02:50:44;8.40;99.90
22167;DHT22;11249;52.468;13.776;2023-04-15T02:53:11;8.50;99.90
22167;DHT22;11249;52.468;13.776;2023-04-15T02:55:38;8.50;99.90
22167;DHT22;11249;52.468;13.776;2023-04-15T02:58:06;8.50;99.90
22167;DHT22;11249;52.468;13.776;2023-04-15T03:00:32;8.50;99.90
22167;DHT22;11249;52.468;13.776;2023-04-15T03:03:02;8.50;99.90
22167;DHT22;11249;52.468;13.776;2023-04-15T03:05:29;8.60;99.90
22167;DHT22;11249;52.468;13.776;2023-04-15T03:07:56;8.60;99.90
22167;DHT22;11249;52.468;13.776;2023-04-15T03:10:23;8.60;99.90
22167;DHT22;11249;52.468;13.776;2023-04-15T03:12:49;8.70;99.90
22167;DHT22;11249;52.468;13.776;2023-04-15T03:15:16;8.70;99.90
22167;DHT22;11249;52.468;13.776;2023-04-15T03:17:43;8.70;99.90
22167;DHT22;11249;52.468;13.776;2023-04-15T03:20:09;8.70;99.90
22167;DHT22;11249;52.468;13.776;2023-04-15T03:22:36;8.70;99.90
22167;DHT22;11249;52.468;13.776;2023-04-15T03:25:03;8.70;99.90
22167;DHT22;11249;52.468;13.776;2023-04-15T03:27:30;8.80;99.90
22167;DHT22;11249;52.468;13.776;2023-04-15T03:29:57;8.70;99.90
22167;DHT22;11249;52.468;13.776;2023-04-15T03:32:24;8.80;99.90
22167;DHT22;11249;52.468;13.776;2023-04-15T03:34:50;8.80;99.90
22167;DHT22;11249;52.468;13.776;2023-04-15T03:37:17;8.80;99.90
22167;DHT22;11249;52.468;13.776;2023-04-15T03:39:44;8.90;99.90
22167;DHT22;11249;52.468;13.776;2023-04-15T03:42:10;8.90;99.90
22167;DHT22;11249;52.468;13.776;2023-04-15T03:44:37;8.90;99.90
22167;DHT22;11249;52.468;13.776;2023-04-15T03:47:04;8.90;99.90
22167;DHT22;11249;52.468;13.776;2023-04-15T03:49:31;8.90;99.90
22167;DHT22;11249;52.468;13.776;2023-04-15T03:51:57;9.00;99.90
22167;DHT22;11249;52.468;13.776;2023-04-15T03:54:25;9.00;99.90
22167;DHT22;11249;52.468;13.776;2023-04-15T03:56:52;9.00;99.90
22167;DHT22;11249;52.468;13.776;2023-04-15T03:59:18;9.00;99.90
22167;DHT22;11249;52.468;13.776;2023-04-15T04:01:45;9.00;99.90
22167;DHT22;11249;52.468;13.776;2023-04-15T04:04:12;9.00;99.90
22167;DHT22;11249;52.468;13.776;2023-04-15T04:06:39;9.00;99.90
22167;DHT22;11249;52.468;13.776;2023-04-15T04:09:06;9.00;99.90
22167;DHT22;11249;52.468;13.776;2023-04-15T04:11:32;9.00;99.90
22167;DHT22;11249;52.468;13.776;2023-04-15T04:13:59;9.10;99.90
22167;DHT22;11249;52.468;13.776;2023-04-15T04:16:26;9.10;99.90
22167;DHT22;11249;52.468;13.776;2023-04-15T04:18:53;9.00;99.90
22167;DHT22;11249;52.468;13.776;2023-04-15T04:21:19;9.10;99.90
22167;DHT22;11249;52.468;13.776;2023-04-15T04:23:47;9.10;99.90
22167;DHT22;11249;52.468;13.776;2023-04-15T04:26:13;9.10;99.90
22167;DHT22;11249;52.468;13.776;2023-04-15T04:28:40;9.20;99.90
22167;DHT22;11249;52.468;13.776;2023-04-15T04:31:07;9.20;99.90
22167;DHT22;11249;52.468;13.776;2023-04-15T04:33:34;9.20;99.90
22167;DHT22;11249;52.468;13.776;2023-04-15T04:36:00;9.20;99.90
22167;DHT22;11249;52.468;13.776;2023-04-15T04:38:27;9.20;99.90
22167;DHT22;11249;52.468;13.776;2023-04-15T04:40:54;9.10;99.90
22167;DHT22;11249;52.468;13.776;2023-04-15T04:43:21;9.10;99.90
22167;DHT22;11249;52.468;13.776;2023-04-15T04:45:47;9.10;99.90
22167;DHT22;11249;52.468;13.776;2023-04-15T04:48:14;9.20;99.90
22167;DHT22;11249;52.468;13.776;2023-04-15T04:50:41;9.20;99.90
22167;DHT22;11249;52.468;13.776;2023-04-15T04:53:08;9.20;99.90
22167;DHT22;11249;52.468;13.776;2023-04-15T04:55:34;9.20;99.90
22167;DHT22;11249;52.468;13.776;2023-04-15T04:58:02;9.20;99.90
22167;DHT22;11249;52.468;13.776;2023-04-15T05:00:29;9.20;99.90
22167;DHT22;11249;52.468;13.776;2023-04-15T05:02:56;9.20;99.90
22167;DHT22;11249;52.468;13.776;2023-04-15T05:05:23;9.20;99.90
22167;DHT22;11249;52.468;13.776;2023-04-15T05:07:50;9.20;99.90
22167;DHT22;11249;52.468;13.776;2023-04-15T05:10:16;9.20;99.90
22167;DHT22;11249;52.468;13.776;2023-04-15T05:12:43;9.20;99.90
22167;DHT22;11249;52.468;13.776;2023-04-15T05:15:10;9.30;99.90
22167;DHT22;11249;52.468;13.776;2023-04-15T05:17:37;9.20;99.90
22167;DHT22;11249;52.468;13.776;2023-04-15T05:20:04;9.30;99.90
22167;DHT22;11249;52.468;13.776;2023-04-15T05:22:31;9.30;99.90
22167;DHT22;11249;52.468;13.776;2023-04-15T05:24:58;9.30;99.90
22167;DHT22;11249;52.468;13.776;2023-04-15T05:27:25;9.30;99.90
22167;DHT22;11249;52.468;13.776;2023-04-15T05:29:52;9.30;99.90
22167;DHT22;11249;52.468;13.776;2023-04-15T05:32:18;9.30;99.90
22167;DHT22;11249;52.468;13.776;2023-04-15T05:34:45;9.30;99.90
22167;DHT22;11249;52.468;13.776;2023-04-15T05:37:12;9.30;99.90
22167;DHT22;11249;52.468;13.776;2023-04-15T05:39:39;9.30;99.90
22167;DHT22;11249;52.468;13.776;2023-04-15T05:42:06;9.30;99.90
22167;DHT22;11249;52.468;13.776;2023-04-15T05:44:33;9.40;99.90
22167;DHT22;11249;52.468;13.776;2023-04-15T05:46:59;9.30;99.90
22167;DHT22;11249;52.468;13.776;2023-04-15T05:49:26;9.40;99.90
22167;DHT22;11249;52.468;13.776;2023-04-15T05:51:53;9.40;99.90
22167;DHT22;11249;52.468;13.776;2023-04-15T05:54:20;9.40;99.90
22167;DHT22;11249;52.468;13.776;2023-04-15T05:56:48;9.40;99.90
22167;DHT22;11249;52.468;13.776;2023-04-15T05:59:16;9.40;99.90
22167;DHT22;11249;52.468;13.776;2023-04-15T06:01:43;9.50;99.90
22167;DHT22;11249;52.468;13.776;2023-04-15T06:04:10;9.50;99.90
22167;DHT22;11249;52.468;13.776;2023-04-15T06:06:37;9.50;99.90
22167;DHT22;11249;52.468;13.776;2023-04-15T06:09:04;9.50;99.90
22167;DHT22;11249;52.468;13.776;2023-04-15T06:11:31;9.50;99.90
22167;DHT22;11249;52.468;13.776;2023-04-15T06:13:58;9.50;99.90
22167;DHT22;11249;52.468;13.776;2023-04-15T06:16:25;9.50;99.90
22167;DHT22;11249;52.468;13.776;2023-04-15T06:18:52;9.60;99.90
22167;DHT22;11249;52.468;13.776;2023-04-15T06:21:19;9.60;99.90
22167;DHT22;11249;52.468;13.776;2023-04-15T06:23:46;9.70;99.90
22167;DHT22;11249;52.468;13.776;2023-04-15T06:26:13;9.60;99.90
22167;DHT22;11249;52.468;13.776;2023-04-15T06:28:39;9.70;99.90
22167;DHT22;11249;52.468;13.776;2023-04-15T06:31:06;9.70;99.90
22167;DHT22;11249;52.468;13.776;2023-04-15T06:33:33;9.70;99.90
22167;DHT22;11249;52.468;13.776;2023-04-15T06:35:59;9.70;99.90
22167;DHT22;11249;52.468;13.776;2023-04-15T06:38:26;9.80;99.90
22167;DHT22;11249;52.468;13.776;2023-04-15T06:40:53;9.80;99.90
22167;DHT22;11249;52.468;13.776;2023-04-15T06:43:19;9.80;99.90
22167;DHT22;11249;52.468;13.776;2023-04-15T06:45:46;9.80;99.90
22167;DHT22;11249;52.468;13.776;2023-04-15T06:48:13;9.90;99.90
22167;DHT22;11249;52.468;13.776;2023-04-15T06:50:39;9.80;99.90
22167;DHT22;11249;52.468;13.776;2023-04-15T06:53:06;9.80;99.90
22167;DHT22;11249;52.468;13.776;2023-04-15T06:55:33;9.90;99.90
22167;DHT22;11249;52.468;13.776;2023-04-15T06:58:00;10.00;99.90
22167;DHT22;11249;52.468;13.776;2023-04-15T07:00:26;9.90;99.90
22167;DHT22;11249;52.468;13.776;2023-04-15T07:02:54;10.00;99.90
22167;DHT22;11249;52.468;13.776;2023-04-15T07:05:21;10.00;99.90
22167;DHT22;11249;52.468;13.776;2023-04-15T07:07:48;10.00;99.90
22167;DHT22;11249;52.468;13.776;2023-04-15T07:10:15;10.00;99.90
22167;DHT22;11249;52.468;13.776;2023-04-15T07:12:42;10.10;99.90
22167;DHT22;11249;52.468;13.776;2023-04-15T07:15:09;10.00;99.90
22167;DHT22;11249;52.468;13.776;2023-04-15T07:17:36;9.90;99.90
22167;DHT22;11249;52.468;13.776;2023-04-15T07:20:03;9.80;99.90
22167;DHT22;11249;52.468;13.776;2023-04-15T07:22:30;9.80;99.90
22167;DHT22;11249;52.468;13.776;2023-04-15T07:24:57;9.80;99.90
22167;DHT22;11249;52.468;13.776;2023-04-15T07:27:23;9.70;99.90
22167;DHT22;11249;52.468;13.776;2023-04-15T07:29:50;9.80;99.90
22167;DHT22;11249;52.468;13.776;2023-04-15T07:32:18;9.80;99.90
22167;DHT22;11249;52.468;13.776;2023-04-15T07:34:45;9.70;99.90
22167;DHT22;11249;52.468;13.776;2023-04-15T07:37:12;9.80;99.90
22167;DHT22;11249;52.468;13.776;2023-04-15T07:39:39;9.80;99.90
22167;DHT22;11249;52.468;13.776;2023-04-15T07:42:05;9.70;99.90
22167;DHT22;11249;52.468;13.776;2023-04-15T07:44:32;9.80;99.90
22167;DHT22;11249;52.468;13.776;2023-04-15T07:46:59;9.80;99.90
22167;DHT22;11249;52.468;13.776;2023-04-15T07:49:25;9.80;99.90
22167;DHT22;11249;52.468;13.776;2023-04-15T07:51:52;9.80;99.90
22167;DHT22;11249;52.468;13.776;2023-04-15T07:54:19;9.80;99.90
22167;DHT22;11249;52.468;13.776;2023-04-15T07:56:46;9.90;99.90
22167;DHT22;11249;52.468;13.776;2023-04-15T07:59:13;9.90;99.90
22167;DHT22;11249;52.468;13.776;2023-04-15T08:01:43;9.90;99.90
22167;DHT22;11249;52.468;13.776;2023-04-15T08:04:10;9.80;99.90
22167;DHT22;11249;52.468;13.776;2023-04-15T08:06:37;9.80;99.90
22167;DHT22;11249;52.468;13.776;2023-04-15T08:09:05;9.80;99.90
22167;DHT22;11249;52.468;13.776;2023-04-15T08:11:33;9.90;99.90
22167;DHT22;11249;52.468;13.776;2023-04-15T08:14:00;9.90;99.90
22167;DHT22;11249;52.468;13.776;2023-04-15T08:16:27;9.90;99.90
22167;DHT22;11249;52.468;13.776;2023-04-15T08:18:55;9.90;99.90
22167;DHT22;11249;52.468;13.776;2023-04-15T08:21:22;9.90;99.90
22167;DHT22;11249;52.468;13.776;2023-04-15T08:23:51;9.90;99.90
22167;DHT22;11249;52.468;13.776;2023-04-15T08:26:18;9.90;99.90
22167;DHT22;11249;52.468;13.776;2023-04-15T08:28:45;9.90;99.90
22167;DHT22;11249;52.468;13.776;2023-04-15T08:31:16;9.90;99.90
22167;DHT22;11249;52.468;13.776;2023-04-15T08:33:43;10.00;99.90
22167;DHT22;11249;52.468;13.776;2023-04-15T08:36:11;10.00;99.90
22167;DHT22;11249;52.468;13.776;2023-04-15T08:38:39;10.00;99.90
22167;DHT22;11249;52.468;13.776;2023-04-15T08:41:19;10.00;99.90
22167;DHT22;11249;52.468;13.776;2023-04-15T08:44:05;10.10;99.90
22167;DHT22;11249;52.468;13.776;2023-04-15T08:46:33;10.00;99.90
22167;DHT22;11249;52.468;13.776;2023-04-15T08:49:02;9.90;99.90
22167;DHT22;11249;52.468;13.776;2023-04-15T08:51:31;10.00;99.90
22167;DHT22;11249;52.468;13.776;2023-04-15T08:53:59;10.00;99.90
22167;DHT22;11249;52.468;13.776;2023-04-15T08:56:27;10.10;99.90
22167;DHT22;11249;52.468;13.776;2023-04-15T08:58:56;10.10;99.90
22167;DHT22;11249;52.468;13.776;2023-04-15T09:01:24;10.10;99.90
22167;DHT22;11249;52.468;13.776;2023-04-15T09:03:51;10.10;99.90
22167;DHT22;11249;52.468;13.776;2023-04-15T09:06:22;10.20;99.90
22167;DHT22;11249;52.468;13.776;2023-04-15T09:08:49;10.30;99.90
22167;DHT22;11249;52.468;13.776;2023-04-15T09:11:18;10.30;99.90
22167;DHT22;11249;52.468;13.776;2023-04-15T09:13:45;10.30;99.90
22167;DHT22;11249;52.468;13.776;2023-04-15T09:16:12;10.40;99.90
22167;DHT22;11249;52.468;13.776;2023-04-15T09:18:39;10.40;99.90
22167;DHT22;11249;52.468;13.776;2023-04-15T09:21:10;10.40;99.90
22167;DHT22;11249;52.468;13.776;2023-04-15T09:23:40;10.40;99.90
22167;DHT22;11249;52.468;13.776;2023-04-15T09:26:07;10.40;99.90
22167;DHT22;11249;52.468;13.776;2023-04-15T09:28:40;10.50;99.90
22167;DHT22;11249;52.468;13.776;2023-04-15T09:31:07;10.50;99.90
22167;DHT22;11249;52.468;13.776;2023-04-15T09:33:53;10.50;99.90
22167;DHT22;11249;52.468;13.776;2023-04-15T09:36:20;10.60;99.90
22167;DHT22;11249;52.468;13.776;2023-04-15T09:38:54;10.60;99.90
22167;DHT22;11249;52.468;13.776;2023-04-15T09:41:24;10.60;99.90
22167;DHT22;11249;52.468;13.776;2023-04-15T09:43:51;10.60;99.90
22167;DHT22;11249;52.468;13.776;2023-04-15T09:46:18;10.60;99.90
22167;DHT22;11249;52.468;13.776;2023-04-15T09:48:45;10.60;99.90
22167;DHT22;11249;52.468;13.776;2023-04-15T09:51:12;10.50;99.90
22167;DHT22;11249;52.468;13.776;2023-04-15T09:53:38;10.50;99.90
22167;DHT22;11249;52.468;13.776;2023-04-15T09:56:05;10.50;99.90
22167;DHT22;11249;52.468;13.776;2023-04-15T09:58:34;10.50;99.90
22167;DHT22;11249;52.468;13.776;2023-04-15T10:01:04;10.50;99.90
22167;DHT22;11249;52.468;13.776;2023-04-15T10:03:33;10.50;99.90
22167;DHT22;11249;52.468;13.776;2023-04-15T10:06:03;10.50;99.90
22167;DHT22;11249;52.468;13.776;2023-04-15T10:08:32;10.40;99.90
22167;DHT22;11249;52.468;13.776;2023-04-15T10:11:01;10.40;99.90
22167;DHT22;11249;52.468;13.776;2023-04-15T10:13:30;10.40;99.90
22167;DHT22;11249;52.468;13.776;2023-04-15T10:16:07;10.50;99.90
22167;DHT22;11249;52.468;13.776;2023-04-15T10:18:39;10.50;99.90
22167;DHT22;11249;52.468;13.776;2023-04-15T10:21:08;10.40;99.90
22167;DHT22;11249;52.468;13.776;2023-04-15T10:23:35;10.40;99.90
22167;DHT22;11249;52.468;13.776;2023-04-15T10:26:03;10.40;99.90
22167;DHT22;11249;52.468;13.776;2023-04-15T10:28:30;10.40;99.90
22167;DHT22;11249;52.468;13.776;2023-04-15T10:30:57;10.40;99.90
22167;DHT22;11249;52.468;13.776;2023-04-15T10:33:26;10.50;99.90
22167;DHT22;11249;52.468;13.776;2023-04-15T10:35:54;10.40;99.90
22167;DHT22;11249;52.468;13.776;2023-04-15T10:38:32;10.40;99.90
22167;DHT22;11249;52.468;13.776;2023-04-15T10:41:20;10.50;99.90
22167;DHT22;11249;52.468;13.776;2023-04-15T10:43:53;10.50;99.90
22167;DHT22;11249;52.468;13.776;2023-04-15T10:46:41;10.50;99.90
22167;DHT22;11249;52.468;13.776;2023-04-15T10:49:13;10.50;99.90
22167;DHT22;11249;52.468;13.776;2023-04-15T10:51:45;10.50;99.90
22167;DHT22;11249;52.468;13.776;2023-04-15T10:54:14;10.50;99.90
22167;DHT22;11249;52.468;13.776;2023-04-15T10:56:45;10.50;99.90
22167;DHT22;11249;52.468;13.776;2023-04-15T10:59:16;10.50;99.90
22167;DHT22;11249;52.468;13.776;2023-04-15T11:01:53;10.50;99.90
22167;DHT22;11249;52.468;13.776;2023-04-15T11:04:50;10.60;99.90
22167;DHT22;11249;52.468;13.776;2023-04-15T11:07:46;10.60;99.90
22167;DHT22;11249;52.468;13.776;2023-04-15T11:12:44;10.60;99.90
22167;DHT22;11249;52.468;13.776;2023-04-15T11:20:25;10.50;99.90
22167;DHT22;11249;52.468;13.776;2023-04-15T11:22:53;10.50;99.90
22167;DHT22;11249;52.468;13.776;2023-04-15T11:25:40;10.50;99.90
22167;DHT22;11249;52.468;13.776;2023-04-15T11:28:07;10.50;99.90
22167;DHT22;11249;52.468;13.776;2023-04-15T11:30:35;10.60;99.90
22167;DHT22;11249;52.468;13.776;2023-04-15T11:33:07;10.60;99.90
22167;DHT22;11249;52.468;13.776;2023-04-15T11:35:34;10.50;99.90
22167;DHT22;11249;52.468;13.776;2023-04-15T11:38:07;10.50;99.90
22167;DHT22;11249;52.468;13.776;2023-04-15T11:40:34;10.60;99.90
22167;DHT22;11249;52.468;13.776;2023-04-15T11:43:09;10.70;99.90
22167;DHT22;11249;52.468;13.776;2023-04-15T11:45:47;10.60;99.90
22167;DHT22;11249;52.468;13.776;2023-04-15T11:48:14;10.60;99.90
22167;DHT22;11249;52.468;13.776;2023-04-15T11:50:41;10.70;99.90
22167;DHT22;11249;52.468;13.776;2023-04-15T11:53:09;10.60;99.90
22167;DHT22;11249;52.468;13.776;2023-04-15T11:55:47;10.60;99.90
22167;DHT22;11249;52.468;13.776;2023-04-15T11:58:22;10.60;99.90
22167;DHT22;11249;52.468;13.776;2023-04-15T12:01:00;10.70;99.90
22167;DHT22;11249;52.468;13.776;2023-04-15T12:03:28;10.90;99.90
22167;DHT22;11249;52.468;13.776;2023-04-15T12:06:15;11.00;99.90
22167;DHT22;11249;52.468;13.776;2023-04-15T12:11:38;10.90;99.90
22167;DHT22;11249;52.468;13.776;2023-04-15T12:14:18;11.10;99.90
22167;DHT22;11249;52.468;13.776;2023-04-15T12:16:48;11.00;99.90
22167;DHT22;11249;52.468;13.776;2023-04-15T12:19:25;11.00;99.90
22167;DHT22;11249;52.468;13.776;2023-04-15T12:22:10;11.00;99.90
22167;DHT22;11249;52.468;13.776;2023-04-15T12:24:38;11.00;99.90
22167;DHT22;11249;52.468;13.776;2023-04-15T12:27:10;11.10;99.90
22167;DHT22;11249;52.468;13.776;2023-04-15T12:29:38;11.10;99.90
22167;DHT22;11249;52.468;13.776;2023-04-15T12:32:06;11.10;99.90
22167;DHT22;11249;52.468;13.776;2023-04-15T12:34:35;11.20;99.90
22167;DHT22;11249;52.468;13.776;2023-04-15T12:37:04;11.30;99.90
22167;DHT22;11249;52.468;13.776;2023-04-15T12:39:34;11.40;99.90
22167;DHT22;11249;52.468;13.776;2023-04-15T12:42:02;11.30;99.90
22167;DHT22;11249;52.468;13.776;2023-04-15T12:44:29;11.40;99.90
22167;DHT22;11249;52.468;13.776;2023-04-15T12:46:56;11.40;99.90
22167;DHT22;11249;52.468;13.776;2023-04-15T12:49:24;11.40;99.90
22167;DHT22;11249;52.468;13.776;2023-04-15T12:51:52;11.50;99.90
22167;DHT22;11249;52.468;13.776;2023-04-15T12:54:20;11.60;99.90
22167;DHT22;11249;52.468;13.776;2023-04-15T12:56:48;11.50;99.90
22167;DHT22;11249;52.468;13.776;2023-04-15T12:59:16;11.60;99.90
22167;DHT22;11249;52.468;13.776;2023-04-15T13:01:46;11.60;99.90
22167;DHT22;11249;52.468;13.776;2023-04-15T13:04:14;11.50;99.90
22167;DHT22;11249;52.468;13.776;2023-04-15T13:06:42;11.60;99.90
22167;DHT22;11249;52.468;13.776;2023-04-15T13:09:09;11.50;99.90
22167;DHT22;11249;52.468;13.776;2023-04-15T13:11:36;11.50;99.90
22167;DHT22;11249;52.468;13.776;2023-04-15T13:14:04;11.40;99.90
22167;DHT22;11249;52.468;13.776;2023-04-15T13:16:31;11.40;99.90
22167;DHT22;11249;52.468;13.776;2023-04-15T13:18:59;11.40;99.90
22167;DHT22;11249;52.468;13.776;2023-04-15T13:21:26;11.30;99.90
22167;DHT22;11249;52.468;13.776;2023-04-15T13:23:53;11.30;99.90
22167;DHT22;11249;52.468;13.776;2023-04-15T13:26:20;11.30;99.90
22167;DHT22;11249;52.468;13.776;2023-04-15T13:28:47;11.30;99.90
22167;DHT22;11249;52.468;13.776;2023-04-15T13:31:14;11.20;99.90
22167;DHT22;11249;52.468;13.776;2023-04-15T13:33:40;11.20;99.90
22167;DHT22;11249;52.468;13.776;2023-04-15T13:36:07;11.30;99.90
22167;DHT22;11249;52.468;13.776;2023-04-15T13:38:34;11.40;99.90
22167;DHT22;11249;52.468;13.776;2023-04-15T13:41:01;11.40;99.90
22167;DHT22;11249;52.468;13.776;2023-04-15T13:43:27;11.50;99.90
22167;DHT22;11249;52.468;13.776;2023-04-15T13:45:54;11.50;99.90
22167;DHT22;11249;52.468;13.776;2023-04-15T13:48:21;11.40;99.90
22167;DHT22;11249;52.468;13.776;2023-04-15T13:50:48;11.50;99.90
22167;DHT22;11249;52.468;13.776;2023-04-15T13:53:15;11.60;99.90
22167;DHT22;11249;52.468;13.776;2023-04-15T13:55:42;11.60;99.90
22167;DHT22;11249;52.468;13.776;2023-04-15T13:58:10;11.60;99.90
22167;DHT22;11249;52.468;13.776;2023-04-15T14:00:37;11.60;99.90
22167;DHT22;11249;52.468;13.776;2023-04-15T14:03:03;11.70;99.90
22167;DHT22;11249;52.468;13.776;2023-04-15T14:05:31;11.50;99.90
22167;DHT22;11249;52.468;13.776;2023-04-15T14:07:59;11.60;99.90
22167;DHT22;11249;52.468;13.776;2023-04-15T14:10:26;11.60;99.90
22167;DHT22;11249;52.468;13.776;2023-04-15T14:12:52;11.60;99.90
22167;DHT22;11249;52.468;13.776;2023-04-15T14:15:20;11.60;99.90
22167;DHT22;11249;52.468;13.776;2023-04-15T14:17:46;11.60;99.90
22167;DHT22;11249;52.468;13.776;2023-04-15T14:20:13;11.60;99.90
22167;DHT22;11249;52.468;13.776;2023-04-15T14:22:42;11.70;99.90
22167;DHT22;11249;52.468;13.776;2023-04-15T14:25:09;11.60;99.90
22167;DHT22;11249;52.468;13.776;2023-04-15T14:27:48;11.50;99.90
22167;DHT22;11249;52.468;13.776;2023-04-15T14:30:16;11.50;99.90
22167;DHT22;11249;52.468;13.776;2023-04-15T14:32:42;11.60;99.90
22167;DHT22;11249;52.468;13.776;2023-04-15T14:35:09;11.50;99.90
22167;DHT22;11249;52.468;13.776;2023-04-15T14:37:36;11.40;99.90
22167;DHT22;11249;52.468;13.776;2023-04-15T14:40:03;11.40;99.90
22167;DHT22;11249;52.468;13.776;2023-04-15T14:42:30;11.30;99.90
22167;DHT22;11249;52.468;13.776;2023-04-15T14:44:56;11.40;99.90
22167;DHT22;11249;52.468;13.776;2023-04-15T14:47:23;11.40;99.90
22167;DHT22;11249;52.468;13.776;2023-04-15T14:49:50;11.40;99.90
22167;DHT22;11249;52.468;13.776;2023-04-15T14:52:16;11.40;99.90
22167;DHT22;11249;52.468;13.776;2023-04-15T14:54:43;11.30;99.90
22167;DHT22;11249;52.468;13.776;2023-04-15T14:57:10;11.30;99.90
22167;DHT22;11249;52.468;13.776;2023-04-15T14:59:36;11.30;99.90
22167;DHT22;11249;52.468;13.776;2023-04-15T15:02:03;11.40;99.90
22167;DHT22;11249;52.468;13.776;2023-04-15T15:04:30;11.30;99.90
22167;DHT22;11249;52.468;13.776;2023-04-15T15:06:59;11.40;99.90
22167;DHT22;11249;52.468;13.776;2023-04-15T15:09:25;11.40;99.90
22167;DHT22;11249;52.468;13.776;2023-04-15T15:11:52;11.40;99.90
22167;DHT22;11249;52.468;13.776;2023-04-15T15:14:19;11.40;99.90
22167;DHT22;11249;52.468;13.776;2023-04-15T15:16:46;11.40;99.90
22167;DHT22;11249;52.468;13.776;2023-04-15T15:19:12;11.50;99.90
22167;DHT22;11249;52.468;13.776;2023-04-15T15:21:39;11.50;99.90
22167;DHT22;11249;52.468;13.776;2023-04-15T15:24:07;11.60;99.90
22167;DHT22;11249;52.468;13.776;2023-04-15T15:26:34;11.60;99.90
22167;DHT22;11249;52.468;13.776;2023-04-15T15:29:00;11.60;99.90
22167;DHT22;11249;52.468;13.776;2023-04-15T15:31:27;11.60;99.90
22167;DHT22;11249;52.468;13.776;2023-04-15T15:33:54;11.60;99.90
22167;DHT22;11249;52.468;13.776;2023-04-15T15:36:20;11.60;99.90
22167;DHT22;11249;52.468;13.776;2023-04-15T15:38:47;11.60;99.90
22167;DHT22;11249;52.468;13.776;2023-04-15T15:41:14;11.70;99.90